Time;durP1;ratioP1;P1;durP2;ratioP2;P2;SDS_P1;SDS_P2;PMS_P1;PMS_P2;Temp;Humidity;BMP_temperature;BMP_pressure;BME280_temperature;BME280_humidity;BME280_pressure;Samples;Min_cycle;Max_cycle;Signal;HPM_P1;HPM_P2
2024/03/06 00:00:29;;;;;;;1.80;1.40;;;;;;;4.80;71.00;92416.00;2071677;69;20514;-78
2024/03/06 00:02:57;;;;;;;1.83;1.50;;;;;;;4.75;71.10;92417.00;2071687;69;20152;-78
2024/03/06 00:05:22;;;;;;;1.75;1.55;;;;;;;4.61;72.47;92421.50;2071658;69;20691;-76
2024/03/06 00:07:48;;;;;;;1.80;1.50;;;;;;;4.60;72.31;92431.16;2072794;69;20239;-77
2024/03/06 00:10:14;;;;;;;2.75;1.80;;;;;;;4.52;72.90;92427.75;2071874;69;20140;-78
2024/03/06 00:12:40;;;;;;;3.50;2.00;;;;;;;4.57;72.40;92435.09;2071571;69;20153;-79
2024/03/06 00:15:08;;;;;;;2.30;1.75;;;;;;;4.66;72.33;92439.28;2071406;69;20232;-77
2024/03/06 00:17:34;;;;;;;2.33;1.98;;;;;;;4.58;71.95;92448.50;2071301;69;20756;-80
2024/03/06 00:20:00;;;;;;;2.85;2.08;;;;;;;4.62;71.99;92452.88;2071437;69;20604;-78
2024/03/06 00:22:26;;;;;;;4.05;2.10;;;;;;;4.49;72.52;92448.41;2068206;69;20577;-76
2024/03/06 00:24:52;;;;;;;3.35;2.10;;;;;;;4.65;72.23;92448.94;2071461;69;20168;-78
2024/03/06 00:27:17;;;;;;;3.25;2.20;;;;;;;4.54;72.70;92439.81;2071088;69;20137;-78
2024/03/06 00:29:43;;;;;;;3.38;2.10;;;;;;;4.48;73.12;92444.88;2071449;69;20227;-77
2024/03/06 00:32:09;;;;;;;2.22;2.00;;;;;;;4.56;72.79;92442.00;2071222;69;20147;-77
2024/03/06 00:34:34;;;;;;;3.10;2.40;;;;;;;4.51;73.03;92440.94;2068061;69;20148;-77
2024/03/06 00:37:00;;;;;;;3.00;2.30;;;;;;;4.49;72.96;92426.09;2071330;69;20672;-77
2024/03/06 00:39:26;;;;;;;2.50;2.15;;;;;;;4.47;72.86;92428.75;2071433;69;20512;-77
2024/03/06 00:41:53;;;;;;;2.80;1.95;;;;;;;4.69;71.80;92416.53;2071295;69;20168;-77
2024/03/06 00:44:19;;;;;;;2.13;1.92;;;;;;;4.63;72.74;92424.44;2071258;69;20148;-77
2024/03/06 00:46:44;;;;;;;2.22;1.92;;;;;;;4.63;72.41;92420.91;2071329;69;20211;-77
2024/03/06 00:49:10;;;;;;;2.85;2.15;;;;;;;4.62;72.62;92425.75;2071576;69;20192;-78
2024/03/06 00:51:36;;;;;;;3.17;2.17;;;;;;;4.39;72.49;92391.88;2071273;69;20175;-76
2024/03/06 00:54:02;;;;;;;4.05;2.22;;;;;;;4.55;72.68;92421.75;2071359;69;20170;-76
2024/03/06 00:56:28;;;;;;;2.45;2.10;;;;;;;4.62;72.70;92425.75;2068090;69;20144;-76
2024/03/06 00:58:54;;;;;;;3.80;2.60;;;;;;;4.51;72.90;92427.00;2071405;69;20164;-77
2024/03/06 01:01:20;;;;;;;2.33;2.13;;;;;;;4.52;73.61;92422.16;2071156;69;20140;-76
2024/03/06 01:03:46;;;;;;;2.95;2.30;;;;;;;4.52;73.66;92422.16;2067784;69;20156;-77
2024/03/06 01:06:11;;;;;;;2.30;2.10;;;;;;;4.57;73.13;92418.38;2071409;69;20140;-77
2024/03/06 01:08:37;;;;;;;3.70;2.40;;;;;;;4.52;72.60;92420.13;2071354;69;20554;-76
2024/03/06 01:11:04;;;;;;;2.42;2.20;;;;;;;4.62;72.39;92420.16;2071748;69;20199;-77
2024/03/06 01:13:30;;;;;;;3.55;1.95;;;;;;;4.64;72.27;92423.13;2071885;69;20301;-77
2024/03/06 01:15:55;;;;;;;2.08;1.90;;;;;;;4.62;72.80;92422.22;2072034;69;20189;-77
2024/03/06 01:18:21;;;;;;;2.40;2.00;;;;;;;4.53;73.22;92418.78;2071818;69;20231;-77
2024/03/06 01:20:47;;;;;;;2.53;2.20;;;;;;;4.50;73.16;92419.97;2071939;69;20140;-75
2024/03/06 01:23:12;;;;;;;2.40;1.70;;;;;;;4.50;73.46;92411.59;2071925;69;20148;-77
2024/03/06 01:25:38;;;;;;;1.92;1.67;;;;;;;4.46;73.33;92411.28;2071807;69;20156;-77
2024/03/06 01:28:04;;;;;;;2.45;1.65;;;;;;;4.42;73.77;92413.03;2071890;69;20188;-77
2024/03/06 01:30:31;;;;;;;1.92;1.60;;;;;;;4.54;73.45;92411.19;2071669;69;20551;-76
2024/03/06 01:32:56;;;;;;;1.38;1.27;;;;;;;4.54;73.13;92411.19;2071748;69;20521;-77
2024/03/06 01:35:24;;;;;;;2.42;1.83;;;;;;;4.47;73.41;92415.53;2071807;69;20175;-76
2024/03/06 01:41:37;;;;;;;4.25;1.95;;;;;;;4.63;71.78;92415.31;2071927;69;20499;-76
2024/03/06 01:44:03;;;;;;;2.25;2.05;;;;;;;4.54;72.80;92416.78;2071853;69;20603;-77
2024/03/06 01:46:30;;;;;;;2.45;2.10;;;;;;;4.58;72.71;92417.06;2071878;69;20236;-77
2024/03/06 01:48:56;;;;;;;3.47;1.90;;;;;;;4.52;72.99;92430.53;2071683;69;20614;-77
2024/03/06 01:51:22;;;;;;;3.03;2.35;;;;;;;4.39;73.81;92408.59;2071818;69;20164;-75
2024/03/06 01:53:48;;;;;;;3.75;2.22;;;;;;;4.36;73.87;92418.88;2071940;69;20152;-78
2024/03/06 01:56:17;;;;;;;3.10;2.50;;;;;;;4.34;74.07;92425.00;2073525;69;20151;-76
2024/03/06 01:58:46;;;;;;;2.42;2.22;;;;;;;4.48;73.02;92421.84;2072186;69;20606;-78
2024/03/06 02:01:13;;;;;;;3.08;2.50;;;;;;;4.50;72.94;92422.75;2071951;69;20156;-77
2024/03/06 02:03:39;;;;;;;3.30;2.75;;;;;;;4.46;73.04;92424.50;2071456;69;20152;-77
2024/03/06 02:06:06;;;;;;;2.60;2.20;;;;;;;4.33;74.16;92414.44;2068548;69;20602;-77
2024/03/06 02:08:32;;;;;;;2.95;2.42;;;;;;;4.45;73.42;92420.25;2071895;69;20144;-77
2024/03/06 02:11:02;;;;;;;3.65;2.53;;;;;;;4.45;73.84;92420.25;2071868;69;20132;-77
2024/03/06 02:13:27;;;;;;;3.50;2.38;;;;;;;4.39;73.73;92428.84;2071836;69;20144;-77
2024/03/06 02:15:53;;;;;;;3.67;2.85;;;;;;;4.31;74.00;92423.38;2071881;69;20256;-76
2024/03/06 02:18:19;;;;;;;4.53;2.90;;;;;;;4.37;74.17;92423.13;2071521;69;20132;-77
2024/03/06 02:24:33;;;;;;;5.95;3.65;;;;;;;4.31;74.13;92422.66;2071933;69;20217;-77
2024/03/06 02:26:59;;;;;;;4.80;3.50;;;;;;;4.24;74.74;92421.41;2071811;69;20175;-77
2024/03/06 02:29:25;;;;;;;5.13;3.60;;;;;;;4.36;74.54;92421.66;2071838;69;20150;-77
2024/03/06 02:31:52;;;;;;;3.67;2.70;;;;;;;4.35;73.57;92425.72;2071619;69;20128;-77
2024/03/06 02:34:17;;;;;;;2.80;2.47;;;;;;;4.35;73.50;92422.94;2071690;69;20145;-77
2024/03/06 02:36:43;;;;;;;3.20;2.60;;;;;;;4.33;73.75;92414.44;2071858;69;20172;-78
2024/03/06 02:39:10;;;;;;;3.75;2.70;;;;;;;4.34;73.87;92421.47;2071941;69;20144;-78
2024/03/06 02:41:37;;;;;;;3.53;2.70;;;;;;;4.33;73.56;92406.81;2067997;69;20124;-76
2024/03/06 02:44:03;;;;;;;3.35;2.60;;;;;;;4.30;73.33;92416.31;2071733;69;20221;-77
2024/03/06 02:46:29;;;;;;;3.08;2.50;;;;;;;4.30;74.12;92418.38;2071750;69;20132;-77
2024/03/06 02:48:55;;;;;;;3.00;2.50;;;;;;;4.26;73.70;92423.63;2071507;69;20152;-78
2024/03/06 02:51:21;;;;;;;3.40;2.65;;;;;;;4.10;74.33;92417.50;2071546;69;20500;-77
2024/03/06 02:53:49;;;;;;;3.95;2.75;;;;;;;4.36;73.40;92418.13;2071720;69;20236;-77
2024/03/06 02:56:20;;;;;;;2.83;2.60;;;;;;;4.21;74.03;92414.19;2071653;69;20152;-77
2024/03/06 02:58:46;;;;;;;4.63;2.95;;;;;;;4.21;73.95;92425.34;2071508;69;20204;-77
2024/03/06 03:01:14;;;;;;;3.83;2.58;;;;;;;4.16;73.98;92423.56;2068467;69;20564;-76
2024/03/06 03:03:44;;;;;;;3.55;3.00;;;;;;;4.17;74.22;92424.28;2071755;69;20243;-76
2024/03/06 03:06:10;;;;;;;3.25;2.92;;;;;;;4.21;74.13;92419.03;2065642;69;20145;-76
2024/03/06 03:08:37;;;;;;;4.35;3.50;;;;;;;4.31;73.17;92419.88;2068291;69;20160;-76
2024/03/06 03:11:03;;;;;;;3.83;3.42;;;;;;;4.27;73.19;92423.06;2065424;69;20264;-77
2024/03/06 03:13:33;;;;;;;4.55;3.03;;;;;;;4.16;73.13;92422.81;2071615;69;20595;-77
2024/03/06 03:15:58;;;;;;;3.38;3.08;;;;;;;4.19;73.99;92425.19;2071795;69;20223;-77
2024/03/06 03:18:24;;;;;;;3.65;3.17;;;;;;;4.15;73.88;92426.94;2071495;69;20155;-77
2024/03/06 03:20:52;;;;;;;3.88;3.03;;;;;;;4.12;73.76;92412.09;2071512;69;20164;-77
2024/03/06 03:23:21;;;;;;;3.17;2.53;;;;;;;4.28;73.84;92432.88;2067831;69;20136;-77
2024/03/06 03:25:48;;;;;;;5.20;2.28;;;;;;;4.29;73.61;92428.03;2068428;69;20142;-77
2024/03/06 03:28:14;;;;;;;2.22;2.00;;;;;;;4.24;74.19;92415.13;2071599;69;20139;-76
2024/03/06 03:30:43;;;;;;;2.20;2.00;;;;;;;4.28;73.59;92418.97;2071644;69;20132;-77
2024/03/06 03:33:09;;;;;;;3.47;1.70;;;;;;;4.20;73.93;92409.22;2071517;69;20249;-76
2024/03/06 03:35:35;;;;;;;2.00;1.80;;;;;;;4.24;73.88;92418.63;2071667;69;20186;-77
2024/03/06 03:38:00;;;;;;;2.83;2.45;;;;;;;4.18;74.13;92418.16;2071627;69;20144;-76
2024/03/06 03:40:29;;;;;;;3.03;2.55;;;;;;;3.89;75.28;92423.50;2071488;69;20497;-77
2024/03/06 03:42:54;;;;;;;3.28;2.40;;;;;;;4.04;75.31;92419.81;2071564;69;20227;-77
2024/03/06 03:45:20;;;;;;;3.22;2.30;;;;;;;4.14;73.50;92428.25;2072755;69;20156;-76
2024/03/06 03:47:45;;;;;;;3.78;2.97;;;;;;;4.07;74.31;92427.75;2071532;69;20129;-76
2024/03/06 03:50:12;;;;;;;4.13;2.80;;;;;;;4.14;74.52;92428.25;2071596;69;20191;-76
2024/03/06 03:52:41;;;;;;;3.20;2.90;;;;;;;4.17;74.24;92435.44;2071354;69;20604;-76
2024/03/06 03:55:08;;;;;;;3.70;3.08;;;;;;;3.86;75.88;92435.81;2071648;69;20659;-77
2024/03/06 03:57:33;;;;;;;3.45;2.80;;;;;;;4.00;75.58;92439.00;2071409;69;20458;-76
2024/03/06 03:59:59;;;;;;;3.30;2.92;;;;;;;4.09;75.08;92429.97;2071389;69;20152;-77
2024/03/06 04:02:25;;;;;;;3.45;2.90;;;;;;;4.04;74.89;92433.75;2071134;69;20657;-77
2024/03/06 04:04:50;;;;;;;4.00;3.00;;;;;;;4.06;74.63;92425.53;2071345;69;20144;-77
2024/03/06 04:07:18;;;;;;;4.88;2.90;;;;;;;4.14;74.55;92436.59;2071614;69;20165;-76
2024/03/06 04:13:36;;;;;;;4.70;3.75;;;;;;;4.14;74.68;92439.41;2071308;69;20127;-77
2024/03/06 04:16:02;;;;;;;6.75;4.07;;;;;;;4.15;74.65;92449.94;2071516;69;20145;-77
2024/03/06 04:18:29;;;;;;;4.75;3.80;;;;;;;4.00;74.64;92447.34;2071573;69;20213;-77
2024/03/06 04:20:54;;;;;;;4.25;3.75;;;;;;;3.85;76.08;92456.63;2071714;69;20167;-78
2024/03/06 04:23:20;;;;;;;4.55;3.90;;;;;;;4.11;75.26;92449.63;2071560;69;20469;-77
2024/03/06 04:25:46;;;;;;;5.20;3.90;;;;;;;4.10;75.39;92450.94;2068355;69;20152;-78
2024/03/06 04:31:59;;;;;;;3.40;3.10;;;;;;;4.21;74.31;92435.75;2071466;69;20131;-76
2024/03/06 04:34:24;;;;;;;4.70;3.63;;;;;;;4.10;75.59;92442.59;2071343;69;20144;-77
2024/03/06 04:36:52;;;;;;;4.45;3.55;;;;;;;4.20;75.00;92448.97;2071613;69;20634;-77
2024/03/06 04:39:18;;;;;;;3.40;3.10;;;;;;;4.24;74.39;92446.50;2071650;69;20300;-78
2024/03/06 04:41:43;;;;;;;3.30;2.95;;;;;;;4.19;74.66;92449.53;2071653;69;20730;-78
2024/03/06 04:44:09;;;;;;;3.97;3.30;;;;;;;4.14;75.26;92456.84;2071605;69;20708;-77
2024/03/06 04:46:35;;;;;;;4.55;3.08;;;;;;;4.26;74.90;92449.47;2071683;69;20160;-79
2024/03/06 04:49:00;;;;;;;3.72;3.15;;;;;;;4.36;73.88;92452.31;2068261;69;20139;-79
2024/03/06 04:51:26;;;;;;;5.80;3.08;;;;;;;4.25;74.75;92450.75;2071236;69;20182;-78
2024/03/06 04:53:52;;;;;;;6.22;3.53;;;;;;;4.19;75.21;92460.69;2071568;69;20168;-78
2024/03/06 04:56:18;;;;;;;6.18;3.70;;;;;;;4.19;75.14;92461.41;2071482;69;20241;-78
2024/03/06 04:58:45;;;;;;;6.93;3.90;;;;;;;4.20;75.06;92451.00;2071551;69;20171;-78
2024/03/06 05:01:12;;;;;;;6.43;3.67;;;;;;;4.28;75.21;92468.38;2071583;69;20148;-78
2024/03/06 05:03:39;;;;;;;4.90;4.38;;;;;;;4.21;74.99;92461.56;2071446;69;20596;-78
2024/03/06 05:06:05;;;;;;;9.23;5.57;;;;;;;4.22;75.29;92468.63;2071506;69;20139;-78
2024/03/06 05:08:31;;;;;;;4.80;4.22;;;;;;;4.20;75.30;92473.31;2071661;69;20158;-78
2024/03/06 05:10:56;;;;;;;4.90;4.20;;;;;;;4.22;75.24;92471.44;2071686;69;20141;-78
2024/03/06 05:13:23;;;;;;;5.20;4.68;;;;;;;4.19;75.52;92467.00;2071467;69;20162;-78
2024/03/06 05:15:48;;;;;;;5.82;4.30;;;;;;;4.23;75.60;92481.25;2071617;69;20700;-78
2024/03/06 05:18:14;;;;;;;5.47;4.40;;;;;;;4.25;75.06;92489.75;2071209;69;20145;-78
2024/03/06 05:20:40;;;;;;;4.38;3.97;;;;;;;4.30;74.78;92485.97;2071446;69;20152;-78
2024/03/06 05:23:06;;;;;;;5.32;3.53;;;;;;;4.26;75.58;92485.69;2071447;69;20588;-78
2024/03/06 05:25:31;;;;;;;6.32;2.88;;;;;;;4.03;76.02;92487.97;2071481;69;20202;-78
2024/03/06 05:27:57;;;;;;;2.70;2.47;;;;;;;3.80;76.89;92477.84;2071626;69;20152;-78
2024/03/06 05:30:22;;;;;;;4.13;2.85;;;;;;;4.14;75.65;92498.63;2068154;69;20547;-78
2024/03/06 05:32:49;;;;;;;2.95;2.47;;;;;;;4.15;75.73;92499.38;2071383;69;20681;-79
2024/03/06 05:35:15;;;;;;;4.07;2.47;;;;;;;4.24;75.22;92493.88;2071250;69;20144;-78
2024/03/06 05:37:43;;;;;;;5.57;3.00;;;;;;;4.18;75.13;92489.88;2071302;69;20137;-77
2024/03/06 05:40:09;;;;;;;5.88;3.05;;;;;;;4.23;75.36;92489.63;2071415;69;20594;-77
2024/03/06 05:42:35;;;;;;;4.05;2.97;;;;;;;4.18;75.96;92493.38;2071489;69;20145;-77
2024/03/06 05:45:04;;;;;;;4.47;3.00;;;;;;;4.12;75.84;92492.16;2071387;69;20503;-78
2024/03/06 05:47:33;;;;;;;4.20;3.22;;;;;;;4.17;75.98;92505.09;2071101;69;20211;-77
2024/03/06 05:49:59;;;;;;;4.30;3.33;;;;;;;4.22;75.45;92499.28;2067870;69;20215;-77
2024/03/06 05:52:25;;;;;;;11.63;5.32;;;;;;;4.32;74.96;92500.09;2071259;69;20532;-77
2024/03/06 05:54:51;;;;;;;5.38;4.28;;;;;;;4.33;75.31;92501.56;2067877;69;20147;-77
2024/03/06 05:57:16;;;;;;;2.20;2.00;;;;;;;4.26;74.96;92493.28;2067895;69;20611;-78
2024/03/06 05:59:42;;;;;;;4.10;3.40;;;;;;;4.23;75.42;92497.97;2071585;69;20150;-77
2024/03/06 06:02:07;;;;;;;6.22;4.32;;;;;;;4.16;76.44;92512.72;2071583;69;20257;-77
2024/03/06 06:04:33;;;;;;;5.88;4.22;;;;;;;4.28;75.76;92510.19;2068389;69;20132;-78
2024/03/06 06:06:59;;;;;;;3.03;2.60;;;;;;;4.25;75.89;92509.28;2068473;69;20626;-78
2024/03/06 06:09:24;;;;;;;3.78;2.60;;;;;;;4.32;75.23;92504.94;2071814;69;20147;-77
2024/03/06 06:11:50;;;;;;;2.30;2.10;;;;;;;4.31;75.79;92506.25;2071842;69;20201;-77
2024/03/06 06:14:16;;;;;;;3.72;1.75;;;;;;;4.30;76.09;92499.91;2071802;69;20599;-77
2024/03/06 06:16:42;;;;;;;3.13;1.50;;;;;;;4.39;75.69;92506.16;2071433;69;20224;-77
2024/03/06 06:19:08;;;;;;;1.40;1.30;;;;;;;4.31;75.32;92506.25;2071554;69;20214;-77
2024/03/06 06:21:35;;;;;;;3.25;1.55;;;;;;;4.40;75.73;92511.16;2071685;69;20152;-77
2024/03/06 06:24:05;;;;;;;7.18;4.32;;;;;;;4.44;75.56;92516.31;2068428;69;20172;-77
2024/03/06 06:26:31;;;;;;;5.00;2.97;;;;;;;4.42;75.47;92516.88;2071772;69;20186;-78
2024/03/06 06:28:57;;;;;;;1.52;1.42;;;;;;;4.41;76.17;92523.78;2071842;69;20251;-77
2024/03/06 06:31:25;;;;;;;2.28;2.08;;;;;;;4.46;75.42;92533.19;2071419;69;20304;-78
2024/03/06 06:33:51;;;;;;;3.95;3.00;;;;;;;4.51;74.84;92538.53;2071407;69;20164;-79
2024/03/06 06:36:18;;;;;;;5.50;3.90;;;;;;;4.51;75.53;92530.16;2071709;69;20148;-77
2024/03/06 06:38:43;;;;;;;9.88;5.75;;;;;;;4.39;74.93;92525.66;2068571;69;20205;-78
2024/03/06 06:41:10;;;;;;;7.60;5.22;;;;;;;4.06;76.33;92529.34;2071851;69;20152;-78
2024/03/06 06:43:36;;;;;;;3.15;2.67;;;;;;;4.39;75.94;92539.59;2068514;69;20266;-78
2024/03/06 06:46:04;;;;;;;2.70;1.77;;;;;;;4.52;75.80;92540.00;2068481;69;20247;-77
2024/03/06 06:48:30;;;;;;;1.73;1.35;;;;;;;4.54;76.30;92533.84;2071808;69;20160;-77
2024/03/06 06:54:43;;;;;;;2.63;1.50;;;;;;;4.64;75.30;92540.22;2071935;69;20293;-78
2024/03/06 06:57:08;;;;;;;1.80;1.40;;;;;;;4.69;75.62;92544.09;2068763;69;20164;-78
2024/03/06 06:59:34;;;;;;;1.70;1.20;;;;;;;4.69;75.84;92544.81;2071852;69;20137;-78
2024/03/06 07:02:00;;;;;;;2.53;1.42;;;;;;;4.68;75.91;92548.94;2071840;69;20137;-77
2024/03/06 07:04:26;;;;;;;1.80;1.70;;;;;;;4.61;76.50;92538.59;2068433;69;20143;-77
2024/03/06 07:06:52;;;;;;;9.57;4.15;;;;;;;4.64;75.92;92559.03;2071328;69;20145;-76
2024/03/06 07:09:20;;;;;;;8.98;4.28;;;;;;;4.70;75.23;92551.88;2071600;69;20256;-78
2024/03/06 07:15:32;;;;;;;5.15;3.20;;;;;;;4.57;76.27;92543.84;2071899;69;20186;-78
2024/03/06 07:17:58;;;;;;;5.57;3.08;;;;;;;4.69;76.36;92558.03;2071756;69;20602;-77
2024/03/06 07:20:23;;;;;;;6.20;3.20;;;;;;;4.73;75.42;92556.28;2071773;69;20204;-78
2024/03/06 07:22:50;;;;;;;6.70;3.50;;;;;;;4.78;75.67;92554.56;2071507;69;20511;-79
2024/03/06 07:25:16;;;;;;;7.40;3.35;;;;;;;4.79;75.39;92559.56;2071688;69;20600;-77
2024/03/06 07:27:42;;;;;;;9.35;3.38;;;;;;;4.83;75.39;92561.94;2071750;69;20148;-77
2024/03/06 07:30:08;;;;;;;6.10;3.88;;;;;;;4.85;75.61;92571.19;2071793;69;20151;-79
2024/03/06 07:32:34;;;;;;;8.38;3.65;;;;;;;5.03;74.98;92562.78;2071644;69;20152;-79
2024/03/06 07:35:00;;;;;;;4.65;3.55;;;;;;;4.97;75.23;92559.53;2071753;69;20129;-77
2024/03/06 07:37:25;;;;;;;4.72;3.20;;;;;;;5.00;74.91;92569.53;2071784;69;20271;-77
2024/03/06 07:39:51;;;;;;;4.80;3.63;;;;;;;4.93;75.26;92576.69;2071753;69;20145;-79
2024/03/06 07:42:18;;;;;;;10.30;5.57;;;;;;;5.04;74.58;92567.03;2071927;69;20156;-81
2024/03/06 07:44:43;;;;;;;7.78;5.50;;;;;;;5.17;74.44;92575.06;2068347;69;20184;-80
2024/03/06 07:47:10;;;;;;;7.20;4.80;;;;;;;5.28;74.17;92585.72;2071747;69;20583;-80
2024/03/06 07:49:35;;;;;;;7.75;5.00;;;;;;;5.01;75.21;92582.91;2071743;69;20139;-77
2024/03/06 07:52:01;;;;;;;7.28;5.00;;;;;;;4.98;74.86;92586.09;2071910;69;20148;-78
2024/03/06 07:54:29;;;;;;;14.77;8.10;;;;;;;4.80;76.24;92593.75;2071626;69;20221;-79
2024/03/06 07:56:55;;;;;;;33.15;16.08;;;;;;;4.84;76.80;92597.59;2071427;69;20143;-78
2024/03/06 07:59:20;;;;;;;26.90;13.73;;;;;;;5.15;75.97;92583.28;2071498;69;20171;-77
2024/03/06 08:01:46;;;;;;;22.63;12.93;;;;;;;5.27;75.30;92584.25;2071324;69;20198;-77
2024/03/06 08:04:11;;;;;;;27.55;14.95;;;;;;;5.37;75.60;92584.28;2071634;69;20190;-78
2024/03/06 08:06:37;;;;;;;24.45;12.60;;;;;;;5.42;75.29;92590.91;2071403;69;20141;-77
2024/03/06 08:09:03;;;;;;;21.88;12.50;;;;;;;5.64;74.19;92591.91;2071420;69;20161;-76
2024/03/06 08:11:29;;;;;;;23.65;13.48;;;;;;;5.77;73.94;92605.47;2071462;69;20148;-80
2024/03/06 08:13:58;;;;;;;19.52;11.50;;;;;;;5.78;74.06;92593.72;2071497;69;20156;-79
2024/03/06 08:16:24;;;;;;;15.77;9.50;;;;;;;5.84;74.10;92605.34;2071645;69;20134;-77
2024/03/06 08:18:50;;;;;;;18.42;9.27;;;;;;;5.94;74.33;92610.25;2071392;69;20136;-78
2024/03/06 08:21:15;;;;;;;15.13;8.25;;;;;;;6.01;73.44;92593.38;2071562;69;20152;-76
2024/03/06 08:23:42;;;;;;;13.63;7.68;;;;;;;5.91;72.84;92595.38;2071547;69;20603;-77
2024/03/06 08:26:07;;;;;;;10.00;5.80;;;;;;;5.72;73.29;92596.03;2071319;69;20148;-76
2024/03/06 08:28:33;;;;;;;6.28;4.82;;;;;;;6.05;72.37;92592.97;2071431;69;20160;-76
2024/03/06 08:31:00;;;;;;;6.43;4.65;;;;;;;6.13;72.03;92590.75;2071628;69;20186;-75
2024/03/06 08:33:25;;;;;;;7.82;4.60;;;;;;;6.17;72.08;92596.66;2071387;69;20152;-77
2024/03/06 08:35:51;;;;;;;35.03;18.20;;;;;;;5.87;72.54;92595.06;2071420;69;20142;-75
2024/03/06 08:38:17;;;;;;;26.92;13.65;;;;;;;5.81;73.30;92598.13;2071649;69;20657;-75
2024/03/06 08:40:45;;;;;;;30.75;15.60;;;;;;;6.04;72.57;92594.25;2071476;69;20503;-77
2024/03/06 08:43:15;;;;;;;23.10;13.85;;;;;;;5.52;74.39;92594.50;2071605;69;20194;-76
2024/03/06 08:45:41;;;;;;;16.40;8.65;;;;;;;5.43;75.27;92614.72;2071586;69;20144;-77
2024/03/06 08:48:07;;;;;;;12.43;6.82;;;;;;;5.92;73.26;92615.72;2071295;69;20648;-77
2024/03/06 08:50:33;;;;;;;17.90;8.02;;;;;;;5.92;73.81;92613.66;2071419;69;20787;-78
2024/03/06 08:52:58;;;;;;;16.52;8.52;;;;;;;6.21;73.07;92610.19;2071515;69;20286;-76
2024/03/06 08:55:24;;;;;;;12.30;7.80;;;;;;;6.32;72.56;92615.22;2071634;69;20190;-77
2024/03/06 08:57:50;;;;;;;13.68;8.30;;;;;;;6.59;72.50;92621.44;2071258;69;20156;-76
2024/03/06 09:00:17;;;;;;;14.95;8.40;;;;;;;6.60;72.22;92622.19;2071653;69;20595;-78
2024/03/06 09:02:43;;;;;;;16.33;9.25;;;;;;;6.85;71.11;92635.91;2068152;69;20661;-76
2024/03/06 09:05:10;;;;;;;14.07;8.90;;;;;;;6.96;71.14;92634.56;2071527;69;20198;-79
2024/03/06 09:07:40;;;;;;;16.92;9.27;;;;;;;6.72;71.85;92630.72;2071538;69;20143;-77
2024/03/06 09:10:10;;;;;;;17.50;9.57;;;;;;;6.62;72.27;92634.25;2071550;69;20140;-78
2024/03/06 09:12:36;;;;;;;18.77;10.70;;;;;;;6.61;72.19;92632.06;2071809;69;20211;-77
2024/03/06 09:15:03;;;;;;;23.88;9.43;;;;;;;6.57;72.27;92624.09;2071558;69;20287;-79
2024/03/06 09:17:29;;;;;;;17.70;8.75;;;;;;;6.60;71.92;92636.91;2071647;69;20152;-76
2024/03/06 09:19:55;;;;;;;13.48;7.78;;;;;;;6.73;72.47;92640.59;2071607;69;20152;-77
2024/03/06 09:22:21;;;;;;;13.30;7.47;;;;;;;6.70;71.73;92644.59;2071520;69;20152;-76
2024/03/06 09:24:48;;;;;;;9.02;6.10;;;;;;;6.98;72.03;92645.91;2071537;69;20234;-77
2024/03/06 09:27:14;;;;;;;9.18;5.95;;;;;;;7.06;71.09;92641.66;2071609;69;20214;-78
2024/03/06 09:29:40;;;;;;;11.95;6.43;;;;;;;7.07;70.51;92647.97;2071407;69;20157;-79
2024/03/06 09:32:06;;;;;;;16.23;8.40;;;;;;;6.66;72.05;92641.47;2071619;69;20141;-78
2024/03/06 09:34:32;;;;;;;13.10;7.25;;;;;;;7.32;70.02;92642.78;2072079;69;20147;-79
2024/03/06 09:36:57;;;;;;;12.63;7.60;;;;;;;7.81;69.44;92645.50;2071875;69;20228;-76
2024/03/06 09:39:23;;;;;;;10.40;6.80;;;;;;;7.97;68.52;92640.28;2072013;69;20615;-76
2024/03/06 09:41:50;;;;;;;13.15;6.95;;;;;;;8.12;67.18;92649.09;2071864;69;20209;-81
2024/03/06 09:44:17;;;;;;;11.00;7.00;;;;;;;7.86;67.39;92647.97;2071858;69;20243;-77
2024/03/06 09:46:48;;;;;;;14.48;7.63;;;;;;;8.26;67.46;92643.72;2071759;69;20144;-79
2024/03/06 09:49:17;;;;;;;8.20;5.10;;;;;;;8.63;65.44;92655.34;2071909;69;20179;-78
2024/03/06 09:51:53;;;;;;;8.07;5.00;;;;;;;8.92;64.89;92651.59;2071868;69;20148;-78
2024/03/06 09:54:20;;;;;;;7.60;4.80;;;;;;;8.90;65.40;92641.00;2071901;69;20168;-84
2024/03/06 09:56:47;;;;;;;3.80;2.60;;;;;;;8.90;64.34;92654.28;2072033;69;20152;-82
2024/03/06 09:59:13;;;;;;;3.67;2.20;;;;;;;9.07;63.53;92650.47;2071875;69;20172;-80
2024/03/06 10:01:46;;;;;;;5.15;2.70;;;;;;;8.49;64.96;92645.97;2071804;69;20148;-79
2024/03/06 10:04:21;;;;;;;;;;;;;;;9.07;64.09;92651.22;2072108;69;20144;-79
2024/03/06 10:06:48;;;;;;;5.07;3.45;;;;;;;9.32;64.75;92649.97;2071473;69;20132;-78
2024/03/06 10:09:18;;;;;;;4.97;3.35;;;;;;;9.49;63.32;92657.38;2071714;69;20168;-77
2024/03/06 10:11:44;;;;;;;4.03;3.15;;;;;;;9.20;62.90;92657.63;2068345;69;20152;-79
2024/03/06 10:14:10;;;;;;;6.38;3.40;;;;;;;9.31;63.78;92651.31;2068364;69;20136;-77
2024/03/06 10:16:36;;;;;;;5.18;3.60;;;;;;;9.28;64.24;92660.94;2071865;69;20301;-78
2024/03/06 10:19:18;;;;;;;5.18;3.80;;;;;;;8.42;67.64;92648.97;2071890;69;20148;-76
2024/03/06 10:21:48;;;;;;;6.97;3.90;;;;;;;8.42;67.25;92654.56;2071727;69;20162;-78
2024/03/06 10:24:27;;;;;;;5.78;4.40;;;;;;;7.73;69.24;92644.94;2071848;69;20533;-75
2024/03/06 10:26:55;;;;;;;6.72;4.40;;;;;;;7.80;69.08;92655.25;2071842;69;20156;-75
2024/03/06 10:29:22;;;;;;;6.80;4.72;;;;;;;7.83;70.07;92668.81;2071764;69;20601;-76
2024/03/06 10:31:48;;;;;;;5.93;3.70;;;;;;;7.56;69.70;92669.00;2071676;69;20162;-76
2024/03/06 10:34:14;;;;;;;6.03;4.00;;;;;;;8.03;68.45;92675.09;2071711;69;20132;-78
2024/03/06 10:36:42;;;;;;;7.40;4.82;;;;;;;8.44;68.01;92677.91;2071672;69;20140;-76
2024/03/06 10:39:10;;;;;;;6.78;4.80;;;;;;;8.64;67.93;92678.53;2071732;69;20262;-77
2024/03/06 10:41:38;;;;;;;4.50;3.38;;;;;;;9.13;65.88;92679.69;2068561;69;20144;-75
2024/03/06 10:44:05;;;;;;;6.95;3.83;;;;;;;8.63;67.19;92677.78;2071634;69;20160;-75
2024/03/06 10:46:35;;;;;;;4.28;3.45;;;;;;;9.08;66.87;92671.59;2071684;69;20187;-74
2024/03/06 10:49:02;;;;;;;3.22;2.55;;;;;;;9.38;65.91;92670.03;2071726;69;20140;-76
2024/03/06 10:51:30;;;;;;;3.63;2.70;;;;;;;9.58;66.82;92671.34;2071329;69;20250;-75
2024/03/06 10:53:58;;;;;;;3.60;2.55;;;;;;;9.47;65.67;92682.53;2071633;69;20159;-75
2024/03/06 10:56:24;;;;;;;9.35;6.93;;;;;;;8.46;67.92;92677.28;2071583;69;20172;-77
2024/03/06 10:58:51;;;;;;;8.27;5.20;;;;;;;8.15;68.57;92669.56;2071706;69;20665;-75
2024/03/06 11:01:19;;;;;;;4.68;2.92;;;;;;;8.68;68.07;92683.69;2071824;69;20256;-75
2024/03/06 11:03:44;;;;;;;3.67;2.42;;;;;;;8.35;68.05;92675.84;2071718;69;20180;-75
2024/03/06 11:06:10;;;;;;;3.72;2.60;;;;;;;8.71;67.87;92669.19;2071517;69;20148;-75
2024/03/06 11:08:36;;;;;;;3.28;2.33;;;;;;;8.72;67.61;92675.53;2068409;69;20139;-76
2024/03/06 11:11:23;;;;;;;1.98;1.77;;;;;;;8.22;67.30;92676.34;2071918;69;20187;-76
2024/03/06 11:13:50;;;;;;;2.55;2.13;;;;;;;8.79;65.06;92677.41;2071723;69;20588;-75
2024/03/06 11:16:16;;;;;;;3.35;2.30;;;;;;;9.24;65.05;92672.66;2071797;69;20166;-75
2024/03/06 11:18:43;;;;;;;5.22;3.33;;;;;;;9.66;64.57;92673.91;2071614;69;20554;-78
2024/03/06 11:21:08;;;;;;;13.88;7.95;;;;;;;9.03;66.00;92656.56;2071672;69;20159;-78
2024/03/06 11:23:34;;;;;;;9.73;6.03;;;;;;;9.16;65.62;92669.31;2071514;69;20148;-78
2024/03/06 11:26:09;;;;;;;5.70;4.15;;;;;;;9.71;64.56;92670.00;2067956;69;20152;-78
2024/03/06 11:28:37;;;;;;;3.00;2.40;;;;;;;9.72;63.60;92665.88;2071392;69;20614;-76
2024/03/06 11:31:11;;;;;;;3.53;2.00;;;;;;;10.25;62.66;92663.56;2068290;69;20186;-76
2024/03/06 11:33:55;;;;;;;2.38;2.00;;;;;;;10.71;61.49;92655.72;2071552;69;20175;-76
2024/03/06 11:36:30;;;;;;;2.55;2.03;;;;;;;10.27;61.23;92655.25;2071792;69;20581;-75
2024/03/06 11:38:57;;;;;;;2.25;1.58;;;;;;;8.59;65.53;92654.34;2068199;69;20151;-76
2024/03/06 11:41:28;;;;;;;1.90;1.40;;;;;;;9.31;64.43;92656.94;2071266;69;20231;-75
2024/03/06 11:43:55;;;;;;;1.65;1.45;;;;;;;9.36;64.08;92641.81;2071285;69;20160;-76
2024/03/06 11:46:23;;;;;;;1.38;1.10;;;;;;;9.47;63.57;92652.34;2068195;69;20239;-75
2024/03/06 11:48:55;;;;;;;1.63;1.50;;;;;;;9.43;62.97;92646.47;2071501;69;20215;-77
2024/03/06 11:51:24;;;;;;;1.92;1.30;;;;;;;9.12;64.28;92647.34;2071485;69;20145;-77
2024/03/06 11:53:53;;;;;;;1.45;1.35;;;;;;;9.84;62.31;92641.34;2067984;69;20148;-77
2024/03/06 11:56:20;;;;;;;1.80;1.30;;;;;;;9.87;63.25;92642.19;2071207;69;20163;-76
2024/03/06 11:58:46;;;;;;;1.40;1.30;;;;;;;9.50;62.33;92639.91;2071462;69;20590;-76